createdAt,value
2017-08-30T00:01:05.802Z,10.70
2017-08-30T00:03:34.050Z,11.00
2017-08-30T00:06:02.325Z,12.00
2017-08-30T00:08:30.578Z,11.83
2017-08-30T00:10:58.838Z,11.80
2017-08-30T00:13:27.875Z,11.40
2017-08-30T00:15:56.650Z,10.87
2017-08-30T00:18:24.903Z,12.07
2017-08-30T00:20:53.667Z,10.87
2017-08-30T00:23:21.911Z,12.53
2017-08-30T00:26:01.885Z,11.67
2017-08-30T00:28:30.138Z,11.33
2017-08-30T00:30:58.394Z,11.13
2017-08-30T00:33:26.667Z,12.23
2017-08-30T00:35:54.917Z,12.73
2017-08-30T00:38:23.170Z,11.33
2017-08-30T00:40:51.929Z,12.47
2017-08-30T00:43:20.170Z,11.80
2017-08-30T00:45:48.422Z,12.60
2017-08-30T00:48:16.710Z,13.20
2017-08-30T00:50:44.954Z,11.77
2017-08-30T00:53:13.197Z,13.10
2017-08-30T00:55:41.469Z,13.90
2017-08-30T00:58:09.718Z,14.60
2017-08-30T01:00:38.742Z,14.93
2017-08-30T01:03:07.081Z,14.03
2017-08-30T01:05:35.325Z,15.47
2017-08-30T01:08:03.570Z,15.60
2017-08-30T01:10:31.846Z,14.77
2017-08-30T01:13:00.094Z,14.27
2017-08-30T01:15:28.342Z,13.53
2017-08-30T01:17:56.933Z,14.13
2017-08-30T01:20:25.298Z,13.83
2017-08-30T01:22:53.542Z,14.47
2017-08-30T01:25:22.752Z,14.57
2017-08-30T01:27:50.998Z,14.03
2017-08-30T01:30:19.254Z,15.43
2017-08-30T01:32:47.530Z,15.23
2017-08-30T01:35:16.545Z,14.97
2017-08-30T01:37:44.794Z,15.07
2017-08-30T01:40:13.070Z,14.60
2017-08-30T01:42:41.321Z,15.97
2017-08-30T01:45:09.565Z,14.23
2017-08-30T01:47:38.082Z,14.50
2017-08-30T01:50:06.606Z,14.10
2017-08-30T01:52:34.842Z,13.87
2017-08-30T01:55:03.118Z,14.40
2017-08-30T01:57:31.370Z,13.67
2017-08-30T01:59:59.626Z,11.77
2017-08-30T02:02:27.894Z,12.10
2017-08-30T02:04:56.150Z,13.50
2017-08-30T02:07:25.170Z,11.57
2017-08-30T02:09:53.878Z,11.10
2017-08-30T02:12:22.142Z,12.30
2017-08-30T02:14:50.393Z,11.07
2017-08-30T02:17:18.662Z,11.03
2017-08-30T02:19:47.358Z,11.80
2017-08-30T02:22:16.379Z,11.93
2017-08-30T02:24:44.649Z,11.33
2017-08-30T02:27:12.893Z,11.50
2017-08-30T02:29:41.150Z,12.07
2017-08-30T02:32:09.617Z,10.83
2017-08-30T02:34:37.862Z,10.77
2017-08-30T02:37:06.117Z,11.73
2017-08-30T02:39:34.393Z,10.60
2017-08-30T02:42:03.408Z,11.13
2017-08-30T02:44:31.654Z,11.60
2017-08-30T02:47:00.128Z,11.20
2017-08-30T02:49:29.142Z,11.43
2017-08-30T02:51:57.389Z,12.20
2017-08-30T02:54:25.718Z,11.77
2017-08-30T02:56:53.971Z,11.77
2017-08-30T02:59:22.218Z,12.67
2017-08-30T03:01:50.493Z,11.57
2017-08-30T03:04:18.742Z,12.87
2017-08-30T03:06:46.996Z,10.90
2017-08-30T03:09:15.270Z,11.10
2017-08-30T03:11:43.658Z,11.87
2017-08-30T03:14:11.914Z,11.93
2017-08-30T03:16:40.418Z,11.83
2017-08-30T03:19:08.669Z,11.70
2017-08-30T03:21:37.134Z,11.20
2017-08-30T03:24:06.177Z,12.53
2017-08-30T03:26:34.423Z,11.63
2017-08-30T03:29:02.674Z,12.10
2017-08-30T03:31:30.941Z,12.07
2017-08-30T03:33:59.194Z,11.80
2017-08-30T03:36:27.446Z,12.60
2017-08-30T03:38:56.138Z,12.07
2017-08-30T03:41:24.637Z,11.63
2017-08-30T03:43:52.874Z,12.40
2017-08-30T03:46:21.141Z,12.03
2017-08-30T03:48:49.395Z,13.00
2017-08-30T03:51:17.641Z,13.07
2017-08-30T03:53:45.917Z,20.73
2017-08-30T03:56:14.162Z,14.40
2017-08-30T03:58:42.420Z,13.33
2017-08-30T04:01:10.934Z,13.23
2017-08-30T04:03:39.186Z,15.63
2017-08-30T04:06:07.438Z,15.10
2017-08-30T04:08:35.713Z,15.80
2017-08-30T04:11:03.966Z,16.70
2017-08-30T04:13:32.214Z,15.90
2017-08-30T04:16:00.546Z,16.03
2017-08-30T04:18:29.603Z,14.93
2017-08-30T04:20:57.829Z,14.43
2017-08-30T04:23:26.654Z,14.13
2017-08-30T04:25:54.956Z,15.30
2017-08-30T04:28:23.216Z,15.80
2017-08-30T04:30:51.474Z,15.77
2017-08-30T04:33:19.717Z,13.90
2017-08-30T04:35:47.966Z,14.70
2017-08-30T04:38:16.257Z,14.73
2017-08-30T04:40:44.514Z,16.13
2017-08-30T04:43:12.774Z,15.90
2017-08-30T04:45:42.012Z,15.03
2017-08-30T04:48:10.258Z,16.20
2017-08-30T04:50:38.505Z,14.70
2017-08-30T04:53:06.843Z,16.90
2017-08-30T04:55:35.094Z,14.60
2017-08-30T04:58:03.341Z,15.23
2017-08-30T05:00:31.618Z,15.03
2017-08-30T05:02:59.870Z,15.50
2017-08-30T05:05:28.126Z,15.57
2017-08-30T05:07:56.858Z,16.30
2017-08-30T05:10:25.194Z,15.30
2017-08-30T05:12:54.214Z,15.50
2017-08-30T05:15:22.486Z,16.47
2017-08-30T05:17:50.742Z,16.03
2017-08-30T05:20:18.989Z,15.60
2017-08-30T05:22:47.386Z,15.53
2017-08-30T05:25:16.050Z,15.17
2017-08-30T05:27:44.298Z,15.97
2017-08-30T05:30:12.666Z,15.83
2017-08-30T05:32:40.906Z,15.57
2017-08-30T05:35:09.922Z,16.30
2017-08-30T05:37:38.198Z,16.00
2017-08-30T05:40:06.454Z,16.73
2017-08-30T05:42:36.845Z,15.70
2017-08-30T05:45:05.121Z,16.40
2017-08-30T05:47:33.378Z,15.27
2017-08-30T05:50:01.630Z,16.50
2017-08-30T05:52:30.446Z,17.27
2017-08-30T05:54:58.693Z,15.03
2017-08-30T05:57:26.938Z,15.17
2017-08-30T05:59:55.978Z,17.77
2017-08-30T06:02:24.231Z,16.60
2017-08-30T06:04:53.242Z,16.73
2017-08-30T06:07:21.517Z,17.83
2017-08-30T06:09:49.762Z,16.97
2017-08-30T06:12:18.013Z,16.90
2017-08-30T06:14:46.781Z,17.17
2017-08-30T06:17:15.038Z,19.20
2017-08-30T06:19:43.285Z,18.70
2017-08-30T06:22:11.566Z,18.23
2017-08-30T06:24:39.810Z,16.77
2017-08-30T06:27:08.293Z,18.20
2017-08-30T06:29:36.569Z,18.40
2017-08-30T06:32:04.830Z,18.17
2017-08-30T06:34:33.077Z,21.07
2017-08-30T06:37:01.878Z,17.47
2017-08-30T06:39:30.131Z,18.67
2017-08-30T06:41:58.558Z,18.80
2017-08-30T06:44:26.828Z,17.97
2017-08-30T06:46:55.073Z,19.17
2017-08-30T06:49:23.377Z,18.40
2017-08-30T06:51:52.034Z,18.27
2017-08-30T06:54:20.282Z,19.00
2017-08-30T06:56:48.550Z,17.00
2017-08-30T06:59:17.102Z,19.33
2017-08-30T07:01:45.354Z,16.27
2017-08-30T07:04:13.605Z,16.90
2017-08-30T07:06:41.891Z,16.47
2017-08-30T07:09:10.149Z,16.57
2017-08-30T07:11:39.173Z,16.30
2017-08-30T07:14:07.479Z,16.57
2017-08-30T07:16:35.715Z,16.20
2017-08-30T07:19:03.961Z,13.50
2017-08-30T07:21:33.305Z,13.70
2017-08-30T07:24:01.549Z,14.03
2017-08-30T07:26:29.797Z,12.93
2017-08-30T07:28:58.434Z,10.57
2017-08-30T07:31:26.685Z,10.77
2017-08-30T07:33:54.934Z,10.40
2017-08-30T07:36:23.206Z,10.43
2017-08-30T07:38:51.580Z,9.90
2017-08-30T07:41:19.822Z,10.20
2017-08-30T07:43:48.423Z,9.83
2017-08-30T07:46:16.658Z,10.37
2017-08-30T07:48:44.906Z,10.10
2017-08-30T07:51:14.117Z,10.17
2017-08-30T07:53:43.138Z,10.50
2017-08-30T07:56:11.442Z,9.93
2017-08-30T07:58:40.477Z,10.60
2017-08-30T08:01:08.834Z,10.50
2017-08-30T08:03:37.110Z,10.77
2017-08-30T08:06:05.672Z,9.50
2017-08-30T08:08:33.910Z,10.60
2017-08-30T08:11:02.162Z,10.40
2017-08-30T08:13:30.442Z,10.33
2017-08-30T08:15:58.806Z,10.37
2017-08-30T08:18:27.042Z,9.97
2017-08-30T08:20:55.314Z,9.70
2017-08-30T08:23:23.558Z,9.30
2017-08-30T08:25:51.801Z,9.30
2017-08-30T08:28:20.509Z,9.30
2017-08-30T08:30:49.106Z,9.37
2017-08-30T08:33:17.348Z,9.23
2017-08-30T08:35:45.617Z,9.00
2017-08-30T08:38:13.858Z,8.40
2017-08-30T08:40:42.118Z,8.80
2017-08-30T08:43:10.382Z,8.90
2017-08-30T08:45:38.621Z,8.47
2017-08-30T08:48:06.870Z,9.13
2017-08-30T08:50:35.873Z,9.17
2017-08-30T08:53:04.113Z,9.10
2017-08-30T08:55:32.357Z,8.73
2017-08-30T08:58:00.626Z,8.07
2017-08-30T09:00:28.862Z,9.00
2017-08-30T09:02:57.109Z,8.10
2017-08-30T09:05:26.150Z,9.63
2017-08-30T09:07:54.399Z,9.87
2017-08-30T09:10:22.633Z,8.93
2017-08-30T09:12:51.043Z,8.00
2017-08-30T09:15:19.286Z,9.37
2017-08-30T09:17:47.549Z,7.70
2017-08-30T09:20:15.804Z,7.67
2017-08-30T09:22:44.046Z,9.67
2017-08-30T09:25:12.290Z,7.73
2017-08-30T09:27:40.563Z,8.50
2017-08-30T09:30:08.794Z,7.47
2017-08-30T09:32:37.658Z,8.83
2017-08-30T09:35:07.003Z,8.70
2017-08-30T09:37:35.241Z,9.33
2017-08-30T09:40:03.487Z,8.87
2017-08-30T09:42:31.814Z,8.50
2017-08-30T09:45:00.058Z,8.00
2017-08-30T09:47:28.299Z,8.90
2017-08-30T09:49:56.613Z,8.23
2017-08-30T09:52:24.862Z,8.37
2017-08-30T09:54:53.101Z,8.30
2017-08-30T09:57:21.486Z,8.33
2017-08-30T09:59:49.719Z,8.53
2017-08-30T10:02:17.969Z,7.80
2017-08-30T10:04:46.247Z,8.87
2017-08-30T10:07:14.494Z,7.90
2017-08-30T10:09:42.739Z,8.80
2017-08-30T10:12:11.010Z,8.00
2017-08-30T10:14:39.258Z,8.43
2017-08-30T10:17:07.502Z,9.20
2017-08-30T10:19:35.822Z,8.50
2017-08-30T10:22:04.062Z,8.50
2017-08-30T10:24:32.305Z,8.80
2017-08-30T10:27:00.574Z,7.67
2017-08-30T10:29:28.814Z,8.40
2017-08-30T10:31:57.069Z,8.20
2017-08-30T10:34:25.763Z,8.63
2017-08-30T10:36:53.987Z,7.97
2017-08-30T10:39:22.221Z,7.07
2017-08-30T10:41:50.781Z,7.57
2017-08-30T10:44:19.026Z,6.97
2017-08-30T10:46:47.460Z,7.50
2017-08-30T10:49:15.726Z,7.50
2017-08-30T10:51:43.962Z,7.30
2017-08-30T10:54:12.202Z,7.30
2017-08-30T10:56:40.473Z,7.60
2017-08-30T10:59:08.722Z,8.20
2017-08-30T11:01:36.962Z,7.90
2017-08-30T11:04:05.366Z,6.83
2017-08-30T11:06:33.610Z,6.80
2017-08-30T11:09:02.618Z,6.30
2017-08-30T11:11:30.886Z,7.00
2017-08-30T11:13:59.130Z,6.23
2017-08-30T11:16:27.369Z,6.33
2017-08-30T11:18:55.634Z,6.50
2017-08-30T11:21:23.873Z,6.70
2017-08-30T11:23:52.121Z,6.10
2017-08-30T11:26:20.674Z,6.17
2017-08-30T11:28:48.924Z,5.60
2017-08-30T11:31:17.158Z,6.10
2017-08-30T11:33:45.423Z,5.80
2017-08-30T11:36:13.687Z,6.37
2017-08-30T11:38:41.934Z,6.10
2017-08-30T11:41:10.299Z,5.77
2017-08-30T11:43:38.542Z,6.20
2017-08-30T11:46:06.786Z,5.93
2017-08-30T11:48:35.115Z,5.50
2017-08-30T11:51:03.359Z,5.73
2017-08-30T11:53:31.602Z,6.70
2017-08-30T11:55:59.866Z,5.90
2017-08-30T11:58:28.110Z,6.20
2017-08-30T12:00:56.366Z,6.00
2017-08-30T12:03:24.613Z,5.60
2017-08-30T12:05:52.854Z,5.30
2017-08-30T12:08:21.864Z,5.63
2017-08-30T12:10:50.578Z,5.47
2017-08-30T12:13:19.590Z,6.10
2017-08-30T12:15:47.817Z,5.53
2017-08-30T12:18:16.082Z,5.70
2017-08-30T12:20:44.317Z,5.00
2017-08-30T12:23:12.563Z,6.83
2017-08-30T12:25:41.098Z,6.20
2017-08-30T12:28:09.352Z,5.90
2017-08-30T12:30:37.587Z,6.37
2017-08-30T12:33:06.286Z,5.60
2017-08-30T12:35:34.530Z,5.27
2017-08-30T12:38:08.726Z,5.33
2017-08-30T12:40:36.969Z,6.03
2017-08-30T12:43:05.206Z,5.63
2017-08-30T12:45:33.478Z,5.43
2017-08-30T12:48:02.487Z,5.77
2017-08-30T12:50:30.730Z,5.80
2017-08-30T12:52:59.132Z,6.83
2017-08-30T12:55:27.378Z,5.83
2017-08-30T12:57:55.627Z,6.07
2017-08-30T13:00:23.904Z,6.10
2017-08-30T13:02:52.143Z,5.80
2017-08-30T13:05:20.389Z,6.10
2017-08-30T13:07:48.665Z,6.57
2017-08-30T13:10:16.902Z,6.77
2017-08-30T13:12:45.146Z,5.60
2017-08-30T13:15:13.497Z,6.60
2017-08-30T13:17:41.743Z,6.37
2017-08-30T13:20:09.982Z,6.57
2017-08-30T13:22:38.254Z,7.57
2017-08-30T13:25:06.494Z,6.40
2017-08-30T13:27:34.745Z,6.23
2017-08-30T13:30:03.034Z,7.47
2017-08-30T13:32:31.277Z,6.50
2017-08-30T13:34:59.518Z,6.63
2017-08-30T13:37:27.839Z,6.27
2017-08-30T13:39:56.477Z,6.70
2017-08-30T13:42:25.489Z,6.77
2017-08-30T13:44:53.762Z,6.40
2017-08-30T13:47:22.006Z,7.00
2017-08-30T13:49:50.252Z,7.07
2017-08-30T13:52:18.506Z,5.87
2017-08-30T13:54:46.754Z,6.60
2017-08-30T13:57:15.018Z,5.83
2017-08-30T13:59:43.555Z,5.90
2017-08-30T14:02:11.798Z,6.47
2017-08-30T14:04:40.038Z,6.10
2017-08-30T14:07:08.302Z,5.80
2017-08-30T14:09:36.542Z,5.87
2017-08-30T14:12:04.790Z,6.27
2017-08-30T14:14:33.822Z,6.57
2017-08-30T14:17:02.124Z,5.97
2017-08-30T14:19:30.384Z,6.10
2017-08-30T14:21:58.976Z,5.50
2017-08-30T14:24:27.214Z,6.07
2017-08-30T14:26:55.461Z,5.70
2017-08-30T14:29:24.490Z,6.43
2017-08-30T14:31:52.734Z,5.60
2017-08-30T14:34:20.979Z,5.57
2017-08-30T14:36:49.359Z,6.33
2017-08-30T14:39:17.598Z,5.90
2017-08-30T14:41:45.879Z,5.30
2017-08-30T14:44:14.210Z,5.80
2017-08-30T14:46:42.450Z,6.00
2017-08-30T14:49:10.754Z,6.50
2017-08-30T14:51:39.922Z,6.20
2017-08-30T14:54:08.181Z,6.80
2017-08-30T14:56:36.425Z,5.73
2017-08-30T14:59:04.694Z,6.30
2017-08-30T15:01:32.934Z,5.80
2017-08-30T15:04:01.182Z,6.33
2017-08-30T15:06:29.778Z,5.90
2017-08-30T15:08:58.018Z,5.67
2017-08-30T15:11:26.262Z,5.70
2017-08-30T15:13:54.532Z,5.50
2017-08-30T15:16:22.779Z,6.30
2017-08-30T15:18:51.041Z,5.83
2017-08-30T15:21:19.290Z,5.90
2017-08-30T15:23:47.540Z,6.93
2017-08-30T15:26:15.773Z,6.23
2017-08-30T15:28:44.097Z,6.40
2017-08-30T15:31:12.338Z,6.30
2017-08-30T15:33:40.582Z,6.50
2017-08-30T15:36:08.854Z,7.07
2017-08-30T15:38:37.099Z,5.33
2017-08-30T15:41:05.395Z,6.33
2017-08-30T15:43:33.918Z,6.50
2017-08-30T15:46:02.230Z,5.13
2017-08-30T15:48:30.469Z,6.00
2017-08-30T15:50:59.069Z,6.37
2017-08-30T15:53:27.313Z,5.63
2017-08-30T15:55:55.743Z,5.90
2017-08-30T15:58:24.011Z,5.10
2017-08-30T16:00:52.296Z,5.13
2017-08-30T16:03:20.527Z,5.73
2017-08-30T16:05:49.046Z,5.23
2017-08-30T16:08:17.330Z,5.37
2017-08-30T16:10:45.570Z,5.93
2017-08-30T16:13:13.926Z,6.33
2017-08-30T16:15:42.938Z,5.00
2017-08-30T16:18:11.182Z,4.87
2017-08-30T16:20:40.225Z,5.60
2017-08-30T16:23:08.466Z,4.93
2017-08-30T16:25:36.710Z,6.17
2017-08-30T16:28:05.000Z,6.10
2017-08-30T16:30:33.247Z,6.33
2017-08-30T16:33:02.254Z,5.73
2017-08-30T16:35:30.806Z,6.57
2017-08-30T16:37:59.046Z,5.30
2017-08-30T16:40:27.294Z,5.33
2017-08-30T16:42:55.558Z,5.10
2017-08-30T16:45:24.550Z,6.10
2017-08-30T16:47:52.790Z,5.80
2017-08-30T16:50:21.058Z,5.80
2017-08-30T16:52:49.313Z,5.83
2017-08-30T16:55:17.555Z,6.80
2017-08-30T16:57:46.249Z,6.40
2017-08-30T17:00:14.493Z,6.50
2017-08-30T17:02:42.737Z,6.70
2017-08-30T17:05:11.018Z,5.70
2017-08-30T17:07:39.346Z,6.50
2017-08-30T17:10:07.586Z,6.27
2017-08-30T17:12:35.862Z,6.70
2017-08-30T17:15:04.102Z,6.50
2017-08-30T17:17:32.346Z,6.47
2017-08-30T17:20:00.702Z,6.50
2017-08-30T17:22:28.950Z,6.27
2017-08-30T17:24:57.190Z,6.93
2017-08-30T17:27:25.461Z,6.47
2017-08-30T17:29:53.706Z,6.23
2017-08-30T17:32:21.955Z,6.93
2017-08-30T17:34:50.222Z,6.80
2017-08-30T17:37:18.678Z,6.57
2017-08-30T17:39:46.922Z,6.80
2017-08-30T17:42:15.497Z,6.20
2017-08-30T17:44:43.738Z,7.23
2017-08-30T17:47:12.482Z,7.13
2017-08-30T17:49:40.750Z,6.63
2017-08-30T17:52:08.992Z,6.87
2017-08-30T17:54:37.315Z,8.20
2017-08-30T17:57:05.585Z,7.67
2017-08-30T17:59:33.834Z,7.60
2017-08-30T18:02:02.169Z,6.70
2017-08-30T18:04:30.784Z,6.90
2017-08-30T18:06:59.086Z,7.70
2017-08-30T18:09:27.325Z,7.33
2017-08-30T18:11:56.362Z,7.33
2017-08-30T18:14:24.698Z,7.70
2017-08-30T18:16:52.974Z,8.03
2017-08-30T18:19:21.251Z,7.53
2017-08-30T18:21:49.490Z,7.30
2017-08-30T18:24:17.738Z,7.00
2017-08-30T18:26:46.070Z,7.90
2017-08-30T18:29:14.306Z,8.50
2017-08-30T18:31:42.552Z,8.07
2017-08-30T18:34:10.817Z,8.50
2017-08-30T18:36:39.061Z,7.43
2017-08-30T18:39:07.301Z,7.73
2017-08-30T18:41:35.565Z,7.97
2017-08-30T18:44:03.811Z,8.03
2017-08-30T18:46:32.053Z,7.87
2017-08-30T18:49:01.117Z,8.63
2017-08-30T18:51:29.379Z,7.77
2017-08-30T18:53:57.635Z,7.80
2017-08-30T18:56:25.902Z,8.70
2017-08-30T18:58:54.142Z,8.00
2017-08-30T19:01:22.381Z,8.77
2017-08-30T19:03:50.650Z,8.37
2017-08-30T19:06:18.894Z,7.47
2017-08-30T19:08:47.134Z,7.67
2017-08-30T19:11:15.473Z,7.80
2017-08-30T19:13:43.722Z,7.60
2017-08-30T19:16:11.967Z,7.90
2017-08-30T19:18:40.231Z,6.80
2017-08-30T19:21:08.734Z,6.77
2017-08-30T19:23:36.974Z,7.50
2017-08-30T19:26:05.241Z,7.10
2017-08-30T19:28:33.485Z,7.23
2017-08-30T19:31:01.727Z,7.07
2017-08-30T19:33:30.712Z,6.90
2017-08-30T19:35:58.950Z,7.40
2017-08-30T19:38:27.389Z,6.67
2017-08-30T19:40:55.659Z,6.63
2017-08-30T19:43:23.906Z,6.90
2017-08-30T19:45:52.155Z,7.40
2017-08-30T19:48:20.417Z,8.13
2017-08-30T19:50:48.706Z,7.50
2017-08-30T19:53:17.719Z,7.77
2017-08-30T19:55:46.190Z,7.50
2017-08-30T19:58:14.434Z,6.50
2017-08-30T20:00:42.683Z,7.00
2017-08-30T20:03:10.950Z,7.10
2017-08-30T20:05:39.203Z,6.70
2017-08-30T20:08:07.442Z,8.13
2017-08-30T20:10:35.710Z,7.77
2017-08-30T20:13:03.949Z,8.37
2017-08-30T20:15:32.190Z,8.30
2017-08-30T20:18:01.842Z,7.53
2017-08-30T20:20:30.094Z,8.00
2017-08-30T20:22:58.346Z,8.00
2017-08-30T20:25:26.629Z,7.60
2017-08-30T20:27:54.874Z,8.40
2017-08-30T20:30:23.118Z,8.90
2017-08-30T20:32:51.382Z,8.53
2017-08-30T20:35:19.621Z,8.30
2017-08-30T20:37:47.882Z,7.77
2017-08-30T20:40:16.386Z,7.87
2017-08-30T20:42:44.828Z,7.90
2017-08-30T20:45:13.054Z,8.47
2017-08-30T20:47:41.322Z,8.03
2017-08-30T20:50:09.566Z,6.93
2017-08-30T20:52:37.824Z,6.90
2017-08-30T20:55:06.094Z,7.33
2017-08-30T20:57:34.341Z,6.50
2017-08-30T21:00:02.695Z,6.87
2017-08-30T21:02:31.794Z,6.80
2017-08-30T21:05:00.954Z,7.30
2017-08-30T21:07:29.195Z,6.63
2017-08-30T21:09:57.459Z,6.47
2017-08-30T21:12:25.694Z,6.20
2017-08-30T21:14:53.933Z,6.43
2017-08-30T21:17:22.237Z,7.10
2017-08-30T21:19:50.458Z,7.33
2017-08-30T21:22:19.466Z,6.80
2017-08-30T21:24:47.942Z,6.80
2017-08-30T21:27:16.181Z,7.00
2017-08-30T21:29:44.422Z,7.50
2017-08-30T21:32:12.695Z,6.83
2017-08-30T21:34:40.938Z,7.30
2017-08-30T21:37:09.186Z,6.33
2017-08-30T21:39:37.462Z,5.63
2017-08-30T21:42:05.702Z,5.77
2017-08-30T21:44:33.950Z,5.27
2017-08-30T21:47:02.278Z,4.43
2017-08-30T21:49:30.522Z,5.27
2017-08-30T21:51:58.762Z,5.77
2017-08-30T21:54:27.974Z,6.33
2017-08-30T21:56:56.226Z,6.30
2017-08-30T21:59:24.463Z,7.40
2017-08-30T22:01:52.741Z,6.00
2017-08-30T22:04:20.987Z,5.03
2017-08-30T22:06:49.230Z,6.50
2017-08-30T22:09:17.962Z,5.50
2017-08-30T22:11:46.261Z,5.40
2017-08-30T22:14:14.506Z,5.97
2017-08-30T22:16:42.772Z,5.73
2017-08-30T22:19:11.094Z,5.40
2017-08-30T22:21:39.342Z,5.33
2017-08-30T22:24:07.606Z,5.00
2017-08-30T22:26:35.852Z,5.43
2017-08-30T22:29:04.381Z,5.60
2017-08-30T22:31:33.066Z,5.13
2017-08-30T22:34:01.406Z,5.00
2017-08-30T22:36:30.415Z,5.80
2017-08-30T22:38:58.681Z,5.10
2017-08-30T22:41:26.934Z,5.53
2017-08-30T22:43:55.182Z,6.10
2017-08-30T22:46:23.441Z,5.70
2017-08-30T22:48:51.686Z,5.03
2017-08-30T22:51:20.689Z,5.00
2017-08-30T22:53:49.402Z,5.70
2017-08-30T22:56:18.037Z,5.87
2017-08-30T22:58:47.045Z,4.97
2017-08-30T23:01:15.319Z,5.60
2017-08-30T23:03:43.562Z,5.27
2017-08-30T23:06:11.806Z,5.73
2017-08-30T23:08:40.074Z,6.13
2017-08-30T23:11:08.313Z,5.70
2017-08-30T23:13:36.556Z,4.07
2017-08-30T23:16:04.875Z,4.30
2017-08-30T23:18:33.114Z,4.20
2017-08-30T23:21:01.498Z,4.50
2017-08-30T23:23:29.770Z,5.37
2017-08-30T23:25:58.001Z,4.20
2017-08-30T23:28:26.398Z,4.90
2017-08-30T23:30:54.671Z,4.30
2017-08-30T23:33:23.078Z,4.40
2017-08-30T23:35:51.322Z,4.53
2017-08-30T23:38:20.225Z,3.73
2017-08-30T23:40:48.466Z,4.53
2017-08-30T23:43:16.702Z,3.90
2017-08-30T23:45:44.966Z,3.90
2017-08-30T23:48:13.210Z,4.03
2017-08-30T23:50:41.450Z,4.20
2017-08-30T23:53:09.830Z,5.03
2017-08-30T23:55:38.068Z,4.63
2017-08-30T23:58:06.974Z,3.77
